createdAt,value
2022-10-21T00:05:31.610Z,11.74
2022-10-21T00:15:09.026Z,11.78
2022-10-21T00:24:46.607Z,11.68
2022-10-21T00:34:28.572Z,11.72
2022-10-21T00:44:00.891Z,11.59
2022-10-21T00:53:38.001Z,11.52
2022-10-21T01:03:17.139Z,11.49
2022-10-21T01:12:54.962Z,11.35
2022-10-21T01:22:30.406Z,11.22
2022-10-21T01:32:07.334Z,11.2
2022-10-21T01:41:46.480Z,11.09
2022-10-21T01:51:21.986Z,11.22
2022-10-21T02:01:01.343Z,11.4
2022-10-21T02:10:36.758Z,11.07
2022-10-21T02:20:14.586Z,10.8
2022-10-21T02:29:50.938Z,10.76
2022-10-21T02:39:27.693Z,10.56
2022-10-21T02:49:07.329Z,10.49
2022-10-21T02:58:44.350Z,10.39
2022-10-21T03:08:19.837Z,10.4
2022-10-21T03:17:58.775Z,10.4
2022-10-21T03:27:35.991Z,10.33
2022-10-21T03:37:13.207Z,10.35
2022-10-21T03:46:48.824Z,10.36
2022-10-21T03:56:25.930Z,10.36
2022-10-21T04:06:03.648Z,10.41
2022-10-21T04:15:40.552Z,10.4
2022-10-21T04:25:19.537Z,10.2
2022-10-21T04:34:54.610Z,9.92
2022-10-21T04:44:30.783Z,9.88
2022-10-21T04:54:07.815Z,9.89
2022-10-21T05:03:44.812Z,9.92
2022-10-21T05:13:24.257Z,9.74
2022-10-21T05:22:59.311Z,9.66
2022-10-21T05:32:36.113Z,9.49
2022-10-21T05:42:12.756Z,9.36
2022-10-21T05:51:49.631Z,8.97
2022-10-21T06:01:28.236Z,8.61
2022-10-21T06:11:05.696Z,8.75
2022-10-21T06:30:21.775Z,9.2
2022-10-21T06:39:56.721Z,8.97
2022-10-21T06:49:36.544Z,9.39
2022-10-21T06:59:14.878Z,9.38
2022-10-21T07:08:58.079Z,10.11
2022-10-21T07:18:31.205Z,10.35
2022-10-21T07:28:07.959Z,10.55
2022-10-21T07:37:45.632Z,10.87
2022-10-21T07:47:26.322Z,11.47
2022-10-21T07:57:04.845Z,12.07
2022-10-21T08:06:40.666Z,12.47
2022-10-21T08:16:18.520Z,12.94
2022-10-21T08:25:57.305Z,13.37
2022-10-21T08:35:35.365Z,13.8
2022-10-21T08:45:13.212Z,13.7
2022-10-21T08:54:52.971Z,14.07
2022-10-21T09:04:28.534Z,14.13
2022-10-21T09:14:07.550Z,14.09
2022-10-21T09:23:45.396Z,14.14
2022-10-21T09:33:21.749Z,14.57
2022-10-21T09:43:01.478Z,14.79
2022-10-21T09:52:37.426Z,14.8
2022-10-21T10:02:14.675Z,14.87
2022-10-21T10:11:55.637Z,15.39
2022-10-21T10:21:31.789Z,16.37
2022-10-21T10:31:12.649Z,16.63
2022-10-21T10:40:50.308Z,16.42
2022-10-21T10:50:27.385Z,16.25
2022-10-21T11:00:06.390Z,16.27
2022-10-21T11:09:42.130Z,15.67
2022-10-21T11:19:18.680Z,15.52
2022-10-21T11:28:53.898Z,14.74
2022-10-21T11:38:29.770Z,14.32
2022-10-21T11:48:06.932Z,14.14
2022-10-21T11:57:43.830Z,14.12
2022-10-21T12:07:20.954Z,14.09
2022-10-21T12:16:57.961Z,14.14
2022-10-21T12:26:35.405Z,14.11
2022-10-21T12:36:13.149Z,14.08
2022-10-21T12:55:30.719Z,14.4
2022-10-21T13:05:08.435Z,14.28
2022-10-21T13:14:46.310Z,14.47
2022-10-21T13:24:24.798Z,14.77
2022-10-21T13:34:02.730Z,14.9
2022-10-21T13:43:38.623Z,14.82
2022-10-21T13:53:16.758Z,15.17
2022-10-21T14:03:16.549Z,16.95
2022-10-21T14:12:42.132Z,16.24
2022-10-21T14:22:17.118Z,15.71
2022-10-21T14:31:50.526Z,15.36
2022-10-21T14:41:26.801Z,15.22
2022-10-21T14:51:05.280Z,15.01
2022-10-21T15:10:19.437Z,15
2022-10-21T15:19:58.421Z,14.79
2022-10-21T15:29:33.771Z,14.65
2022-10-21T15:39:12.368Z,14.6
2022-10-21T15:48:47.785Z,14.49
2022-10-21T15:58:26.939Z,14.33
2022-10-21T16:08:04.461Z,14.15
2022-10-21T16:17:39.571Z,13.98
2022-10-21T16:27:26.457Z,13.8
2022-10-21T16:36:53.777Z,13.64
2022-10-21T16:46:30.867Z,13.42
2022-10-21T16:56:07.406Z,13.24
2022-10-21T17:05:46.545Z,13.16
2022-10-21T17:15:21.918Z,13.09
2022-10-21T17:25:01.420Z,13
2022-10-21T17:34:37.253Z,12.93
2022-10-21T17:44:14.658Z,12.9
2022-10-21T17:53:51.864Z,12.91
2022-10-21T18:03:31.586Z,12.92
2022-10-21T18:13:07.016Z,12.98
2022-10-21T18:22:44.443Z,12.9
2022-10-21T18:32:21.243Z,12.66
2022-10-21T18:42:00.378Z,12.69
2022-10-21T18:51:38.349Z,12.67
2022-10-21T19:01:13.715Z,12.81
2022-10-21T19:10:51.188Z,13.02
2022-10-21T19:20:30.606Z,13
2022-10-21T19:30:05.928Z,13.05
2022-10-21T19:39:45.181Z,12.99
2022-10-21T19:49:22.725Z,12.62
2022-10-21T19:58:58.513Z,12.61
2022-10-21T20:08:35.398Z,12.46
2022-10-21T20:18:14.413Z,12.31
2022-10-21T20:27:52.250Z,12.25
2022-10-21T20:37:27.709Z,12.09
2022-10-21T20:47:06.782Z,11.92
2022-10-21T20:56:42.424Z,11.47
2022-10-21T21:06:21.278Z,11.41
2022-10-21T21:15:57.218Z,11.85
2022-10-21T21:25:34.844Z,12.18
2022-10-21T21:35:12.464Z,11.88
2022-10-21T21:44:48.805Z,11.46
2022-10-21T21:54:28.409Z,11.73
2022-10-21T22:04:04.618Z,12.07
2022-10-21T22:13:42.342Z,12.15
2022-10-21T22:23:19.686Z,12.23
2022-10-21T22:32:58.996Z,12.09
2022-10-21T22:42:34.939Z,12.21
2022-10-21T22:52:12.785Z,12.37
2022-10-21T23:01:50.363Z,11.96
2022-10-21T23:11:29.434Z,12.13
2022-10-21T23:21:06.819Z,12.41
2022-10-21T23:30:42.741Z,12.25
2022-10-21T23:40:21.735Z,12.23
2022-10-21T23:49:59.621Z,12.08
2022-10-21T23:59:37.989Z,11.8
